Airport View

Enter AWOS ICAO identifier for current METAR.

ex. KFNL

KJES 011310Z AUTO 00000KT 10SM CLR 17/12 A3007 RMK AO2

1 Oct 2020 13:40

Frequency: 118.125

Phone: 912 427 0855

Other Area AWOS: KLHW - KBQK - KBHC - KAMG

TAF KSSI 011131Z 0112/0212 34004KT P6SM SKC FM011800 04007KT P6SM SKC FM012300 00000KT P6SM SKC FM020600 32006KT P6SM SKC